sensor_id;sensor_type;location;lat;lon;timestamp;pressure;altitude;pressure_sealevel;temperature;humidity
60319;BME280;46163;52.306;5.634;2022-12-10T00:01:27;100664.75;;;14.69;53.87
60319;BME280;46163;52.306;5.634;2022-12-10T00:03:53;100666.81;;;14.67;54.01
60319;BME280;46163;52.306;5.634;2022-12-10T00:06:23;100668.91;;;14.65;53.91
60319;BME280;46163;52.306;5.634;2022-12-10T00:08:52;100664.84;;;14.63;53.88
60319;BME280;46163;52.306;5.634;2022-12-10T00:11:17;100665.09;;;14.61;53.63
60319;BME280;46163;52.306;5.634;2022-12-10T00:13:45;100661.81;;;14.59;53.92
60319;BME280;46163;52.306;5.634;2022-12-10T00:16:16;100665.78;;;14.57;53.72
60319;BME280;46163;52.306;5.634;2022-12-10T00:18:42;100659.84;;;14.55;53.72
60319;BME280;46163;52.306;5.634;2022-12-10T00:21:11;100667.28;;;14.53;54.05
60319;BME280;46163;52.306;5.634;2022-12-10T00:23:38;100666.91;;;14.49;53.93
60319;BME280;46163;52.306;5.634;2022-12-10T00:26:06;100671.69;;;14.47;53.85
60319;BME280;46163;52.306;5.634;2022-12-10T00:28:33;100659.88;;;14.36;53.98
60319;BME280;46163;52.306;5.634;2022-12-10T00:31:13;100678.31;;;14.45;53.74
60319;BME280;46163;52.306;5.634;2022-12-10T00:33:40;100672.56;;;14.41;53.86
60319;BME280;46163;52.306;5.634;2022-12-10T00:36:11;100677.34;;;14.39;53.83
60319;BME280;46163;52.306;5.634;2022-12-10T00:38:39;100666.06;;;14.37;53.90
60319;BME280;46163;52.306;5.634;2022-12-10T00:41:05;100662.81;;;14.35;53.96
60319;BME280;46163;52.306;5.634;2022-12-10T00:43:30;100662.19;;;14.33;53.72
60319;BME280;46163;52.306;5.634;2022-12-10T00:45:59;100663.47;;;14.30;53.84
60319;BME280;46163;52.306;5.634;2022-12-10T00:48:25;100656.50;;;14.29;53.63
60319;BME280;46163;52.306;5.634;2022-12-10T00:51:11;100654.13;;;14.21;53.93
60319;BME280;46163;52.306;5.634;2022-12-10T00:53:39;100660.88;;;14.24;53.77
60319;BME280;46163;52.306;5.634;2022-12-10T00:56:07;100668.34;;;14.22;53.64
60319;BME280;46163;52.306;5.634;2022-12-10T00:58:34;100666.13;;;14.19;53.53
60319;BME280;46163;52.306;5.634;2022-12-10T01:01:20;100662.88;;;14.17;53.59
60319;BME280;46163;52.306;5.634;2022-12-10T01:03:47;100660.63;;;14.13;53.71
60319;BME280;46163;52.306;5.634;2022-12-10T01:06:28;100665.41;;;14.11;53.56
60319;BME280;46163;52.306;5.634;2022-12-10T01:08:56;100661.34;;;14.09;53.42
60319;BME280;46163;52.306;5.634;2022-12-10T01:11:25;100672.28;;;14.07;53.41
60319;BME280;46163;52.306;5.634;2022-12-10T01:13:52;100668.16;;;14.05;53.60
60319;BME280;46163;52.306;5.634;2022-12-10T01:16:19;100683.63;;;14.03;53.67
60319;BME280;46163;52.306;5.634;2022-12-10T01:18:45;100673.97;;;14.02;53.45
60319;BME280;46163;52.306;5.634;2022-12-10T01:21:14;100683.28;;;13.99;53.39
60319;BME280;46163;52.306;5.634;2022-12-10T01:23:41;100678.38;;;13.96;53.37
60319;BME280;46163;52.306;5.634;2022-12-10T01:26:10;100692.78;;;13.95;53.51
60319;BME280;46163;52.306;5.634;2022-12-10T01:28:37;100690.19;;;13.89;53.33
60319;BME280;46163;52.306;5.634;2022-12-10T01:31:06;100691.63;;;13.91;53.32
60319;BME280;46163;52.306;5.634;2022-12-10T01:33:34;100690.19;;;13.89;53.49
60319;BME280;46163;52.306;5.634;2022-12-10T01:36:05;100692.88;;;13.89;53.83
60319;BME280;46163;52.306;5.634;2022-12-10T01:38:31;100694.97;;;13.86;53.52
60319;BME280;46163;52.306;5.634;2022-12-10T01:40:58;100685.53;;;13.84;53.63
60319;BME280;46163;52.306;5.634;2022-12-10T01:43:24;100699.97;;;13.83;53.60
60319;BME280;46163;52.306;5.634;2022-12-10T01:45:52;100702.88;;;13.81;53.19
60319;BME280;46163;52.306;5.634;2022-12-10T01:48:18;100704.13;;;13.79;53.48
60319;BME280;46163;52.306;5.634;2022-12-10T01:50:44;100700.03;;;13.76;53.18
60319;BME280;46163;52.306;5.634;2022-12-10T01:53:10;100699.88;;;13.71;53.33
60319;BME280;46163;52.306;5.634;2022-12-10T01:55:48;100704.00;;;13.74;53.37
60319;BME280;46163;52.306;5.634;2022-12-10T01:58:18;100700.50;;;13.73;53.69
60319;BME280;46163;52.306;5.634;2022-12-10T02:01:45;100709.75;;;13.71;53.34
60319;BME280;46163;52.306;5.634;2022-12-10T02:06:44;100711.28;;;13.67;53.27
60319;BME280;46163;52.306;5.634;2022-12-10T02:09:35;100708.81;;;13.65;53.45
60319;BME280;46163;52.306;5.634;2022-12-10T02:12:37;100697.75;;;13.62;53.22
60319;BME280;46163;52.306;5.634;2022-12-10T02:15:14;100697.97;;;13.60;53.51
60319;BME280;46163;52.306;5.634;2022-12-10T02:17:52;100695.97;;;13.55;53.62
60319;BME280;46163;52.306;5.634;2022-12-10T02:21:03;100710.75;;;13.58;53.28
60319;BME280;46163;52.306;5.634;2022-12-10T02:23:47;100712.59;;;13.57;53.61
60319;BME280;46163;52.306;5.634;2022-12-10T02:29:10;100695.81;;;13.50;53.42
60319;BME280;46163;52.306;5.634;2022-12-10T02:31:37;100712.22;;;13.54;53.43
60319;BME280;46163;52.306;5.634;2022-12-10T02:34:06;100701.75;;;13.52;53.43
60319;BME280;46163;52.306;5.634;2022-12-10T02:36:35;100703.63;;;13.52;53.30
60319;BME280;46163;52.306;5.634;2022-12-10T02:39:03;100703.84;;;13.50;53.00
60319;BME280;46163;52.306;5.634;2022-12-10T02:41:36;100699.53;;;13.49;53.13
60319;BME280;46163;52.306;5.634;2022-12-10T02:44:05;100704.06;;;13.49;53.25
60319;BME280;46163;52.306;5.634;2022-12-10T02:46:33;100705.13;;;13.48;53.12
60319;BME280;46163;52.306;5.634;2022-12-10T02:49:02;100709.03;;;13.45;53.29
60319;BME280;46163;52.306;5.634;2022-12-10T02:51:28;100709.03;;;13.45;53.23
60319;BME280;46163;52.306;5.634;2022-12-10T02:53:59;100713.56;;;13.45;52.92
60319;BME280;46163;52.306;5.634;2022-12-10T02:56:58;100721.00;;;13.43;53.38
60319;BME280;46163;52.306;5.634;2022-12-10T02:59:33;100709.94;;;13.39;53.05
60319;BME280;46163;52.306;5.634;2022-12-10T03:07:14;100710.97;;;13.38;53.39
60319;BME280;46163;52.306;5.634;2022-12-10T03:09:54;100710.34;;;13.36;53.13
60319;BME280;46163;52.306;5.634;2022-12-10T03:12:35;100715.69;;;13.36;53.03
60319;BME280;46163;52.306;5.634;2022-12-10T03:15:06;100705.69;;;13.32;53.21
60319;BME280;46163;52.306;5.634;2022-12-10T03:17:33;100714.31;;;13.34;52.92
60319;BME280;46163;52.306;5.634;2022-12-10T03:20:02;100708.38;;;13.32;52.97
60319;BME280;46163;52.306;5.634;2022-12-10T03:22:29;100712.91;;;13.31;53.06
60319;BME280;46163;52.306;5.634;2022-12-10T03:24:55;100707.97;;;13.28;53.42
60319;BME280;46163;52.306;5.634;2022-12-10T03:27:23;100699.97;;;13.28;52.93
60319;BME280;46163;52.306;5.634;2022-12-10T03:29:54;100695.66;;;13.27;53.38
60319;BME280;46163;52.306;5.634;2022-12-10T03:32:23;100689.50;;;13.26;53.11
60319;BME280;46163;52.306;5.634;2022-12-10T03:34:51;100684.81;;;13.22;52.84
60319;BME280;46163;52.306;5.634;2022-12-10T03:37:18;100688.91;;;13.24;53.31
60319;BME280;46163;52.306;5.634;2022-12-10T03:39:44;100697.16;;;13.23;53.33
60319;BME280;46163;52.306;5.634;2022-12-10T03:42:10;100694.47;;;13.23;53.03
60319;BME280;46163;52.306;5.634;2022-12-10T03:44:38;100698.19;;;13.22;53.03
60319;BME280;46163;52.306;5.634;2022-12-10T03:47:06;100700.03;;;13.21;52.89
60319;BME280;46163;52.306;5.634;2022-12-10T03:49:33;100697.38;;;13.21;52.94
60319;BME280;46163;52.306;5.634;2022-12-10T03:51:59;100692.84;;;13.22;53.02
60319;BME280;46163;52.306;5.634;2022-12-10T03:54:24;100700.63;;;13.23;53.24
60319;BME280;46163;52.306;5.634;2022-12-10T03:56:50;100696.91;;;13.24;52.99
60319;BME280;46163;52.306;5.634;2022-12-10T03:59:15;100685.44;;;13.17;53.10
60319;BME280;46163;52.306;5.634;2022-12-10T04:01:41;100694.41;;;13.29;53.29
60319;BME280;46163;52.306;5.634;2022-12-10T04:04:07;100696.41;;;13.34;52.98
60319;BME280;46163;52.306;5.634;2022-12-10T04:06:33;100706.66;;;13.37;52.66
60319;BME280;46163;52.306;5.634;2022-12-10T04:08:59;100703.31;;;13.42;52.64
60319;BME280;46163;52.306;5.634;2022-12-10T04:11:25;100698.34;;;13.45;52.80
60319;BME280;46163;52.306;5.634;2022-12-10T04:13:51;100703.84;;;13.50;52.59
60319;BME280;46163;52.306;5.634;2022-12-10T04:16:35;100698.66;;;13.55;52.21
60319;BME280;46163;52.306;5.634;2022-12-10T04:19:13;100692.97;;;13.64;52.39
60319;BME280;46163;52.306;5.634;2022-12-10T04:21:40;100698.25;;;13.70;52.02
60319;BME280;46163;52.306;5.634;2022-12-10T04:24:27;100706.19;;;13.77;52.17
60319;BME280;46163;52.306;5.634;2022-12-10T04:27:15;100695.19;;;13.85;52.08
60319;BME280;46163;52.306;5.634;2022-12-10T04:29:41;100694.50;;;13.90;51.55
60319;BME280;46163;52.306;5.634;2022-12-10T04:32:07;100703.03;;;13.98;51.62
60319;BME280;46163;52.306;5.634;2022-12-10T04:34:32;100707.50;;;14.04;51.35
60319;BME280;46163;52.306;5.634;2022-12-10T04:36:59;100710.66;;;14.13;51.28
60319;BME280;46163;52.306;5.634;2022-12-10T04:39:25;100706.84;;;14.21;51.01
60319;BME280;46163;52.306;5.634;2022-12-10T04:41:50;100694.44;;;14.26;51.12
60319;BME280;46163;52.306;5.634;2022-12-10T04:44:17;100697.00;;;14.33;51.11
60319;BME280;46163;52.306;5.634;2022-12-10T04:46:42;100698.53;;;14.40;51.04
60319;BME280;46163;52.306;5.634;2022-12-10T04:49:08;100693.34;;;14.46;50.51
60319;BME280;46163;52.306;5.634;2022-12-10T04:51:34;100699.41;;;14.53;50.63
60319;BME280;46163;52.306;5.634;2022-12-10T04:53:59;100694.41;;;14.56;50.58
60319;BME280;46163;52.306;5.634;2022-12-10T04:56:26;100702.34;;;14.63;50.37
60319;BME280;46163;52.306;5.634;2022-12-10T04:58:52;100708.66;;;14.68;50.27
60319;BME280;46163;52.306;5.634;2022-12-10T05:01:18;100711.19;;;14.75;50.12
60319;BME280;46163;52.306;5.634;2022-12-10T05:03:46;100707.63;;;14.81;49.84
60319;BME280;46163;52.306;5.634;2022-12-10T05:06:15;100707.94;;;14.85;49.88
60319;BME280;46163;52.306;5.634;2022-12-10T05:08:41;100708.09;;;14.90;49.81
60319;BME280;46163;52.306;5.634;2022-12-10T05:11:16;100705.53;;;14.95;49.81
60319;BME280;46163;52.306;5.634;2022-12-10T05:13:43;100701.91;;;15.01;49.49
60319;BME280;46163;52.306;5.634;2022-12-10T05:16:11;100696.91;;;15.05;49.53
60319;BME280;46163;52.306;5.634;2022-12-10T05:18:36;100703.41;;;15.09;49.36
60319;BME280;46163;52.306;5.634;2022-12-10T05:21:05;100696.31;;;15.14;49.35
60319;BME280;46163;52.306;5.634;2022-12-10T05:23:32;100702.84;;;15.18;49.20
60319;BME280;46163;52.306;5.634;2022-12-10T05:26:04;100698.88;;;15.21;49.09
60319;BME280;46163;52.306;5.634;2022-12-10T05:28:33;100700.28;;;15.23;49.10
60319;BME280;46163;52.306;5.634;2022-12-10T05:31:00;100697.13;;;15.26;49.09
60319;BME280;46163;52.306;5.634;2022-12-10T05:33:27;100700.75;;;15.32;48.90
60319;BME280;46163;52.306;5.634;2022-12-10T05:38:22;100704.94;;;15.40;48.85
60319;BME280;46163;52.306;5.634;2022-12-10T05:40:49;100702.69;;;15.37;48.76
60319;BME280;46163;52.306;5.634;2022-12-10T05:43:15;100712.25;;;15.44;48.76
60319;BME280;46163;52.306;5.634;2022-12-10T05:45:41;100704.56;;;15.48;48.78
60319;BME280;46163;52.306;5.634;2022-12-10T05:48:09;100706.78;;;15.51;48.65
60319;BME280;46163;52.306;5.634;2022-12-10T05:50:35;100710.03;;;15.53;48.44
60319;BME280;46163;52.306;5.634;2022-12-10T05:53:00;100711.19;;;15.57;48.44
60319;BME280;46163;52.306;5.634;2022-12-10T05:55:26;100716.31;;;15.59;48.55
60319;BME280;46163;52.306;5.634;2022-12-10T05:57:52;100716.06;;;15.60;48.41
60319;BME280;46163;52.306;5.634;2022-12-10T06:00:18;100719.16;;;15.64;48.36
60319;BME280;46163;52.306;5.634;2022-12-10T06:02:43;100716.22;;;15.65;48.30
60319;BME280;46163;52.306;5.634;2022-12-10T06:05:09;100713.06;;;15.68;48.48
60319;BME280;46163;52.306;5.634;2022-12-10T06:07:35;100710.94;;;15.70;48.31
60319;BME280;46163;52.306;5.634;2022-12-10T06:10:00;100719.13;;;15.75;48.28
60319;BME280;46163;52.306;5.634;2022-12-10T06:12:26;100711.06;;;15.75;48.20
60319;BME280;46163;52.306;5.634;2022-12-10T06:14:51;100712.44;;;15.78;48.03
60319;BME280;46163;52.306;5.634;2022-12-10T06:17:17;100716.50;;;15.80;48.13
60319;BME280;46163;52.306;5.634;2022-12-10T06:19:42;100723.06;;;15.85;48.18
60319;BME280;46163;52.306;5.634;2022-12-10T06:22:08;100718.50;;;15.85;48.03
60319;BME280;46163;52.306;5.634;2022-12-10T06:24:33;100727.38;;;15.86;47.92
60319;BME280;46163;52.306;5.634;2022-12-10T06:26:59;100727.94;;;15.88;47.93
60319;BME280;46163;52.306;5.634;2022-12-10T06:29:24;100728.50;;;15.90;47.97
60319;BME280;46163;52.306;5.634;2022-12-10T06:31:50;100730.16;;;15.91;47.91
60319;BME280;46163;52.306;5.634;2022-12-10T06:34:15;100736.91;;;15.93;47.84
60319;BME280;46163;52.306;5.634;2022-12-10T06:36:41;100732.94;;;15.96;47.83
60319;BME280;46163;52.306;5.634;2022-12-10T06:39:06;100743.41;;;15.97;47.94
60319;BME280;46163;52.306;5.634;2022-12-10T06:41:32;100742.97;;;16.00;47.77
60319;BME280;46163;52.306;5.634;2022-12-10T06:43:58;100744.03;;;15.99;47.77
60319;BME280;46163;52.306;5.634;2022-12-10T06:46:24;100747.28;;;16.01;47.60
60319;BME280;46163;52.306;5.634;2022-12-10T06:48:50;100753.22;;;16.03;47.79
60319;BME280;46163;52.306;5.634;2022-12-10T06:51:16;100756.47;;;16.05;47.80
60319;BME280;46163;52.306;5.634;2022-12-10T06:53:45;100751.09;;;16.05;47.68
60319;BME280;46163;52.306;5.634;2022-12-10T06:56:13;100744.91;;;16.05;47.75
60319;BME280;46163;52.306;5.634;2022-12-10T06:58:39;100751.44;;;16.09;47.66
60319;BME280;46163;52.306;5.634;2022-12-10T07:01:13;100751.22;;;16.10;47.71
60319;BME280;46163;52.306;5.634;2022-12-10T07:03:39;100745.59;;;16.12;47.64
60319;BME280;46163;52.306;5.634;2022-12-10T07:06:06;100733.50;;;15.98;47.48
60319;BME280;46163;52.306;5.634;2022-12-10T07:08:33;100753.16;;;16.15;47.64
60319;BME280;46163;52.306;5.634;2022-12-10T07:10:59;100750.47;;;16.15;47.52
60319;BME280;46163;52.306;5.634;2022-12-10T07:13:25;100745.34;;;16.14;47.57
60319;BME280;46163;52.306;5.634;2022-12-10T07:15:50;100755.38;;;16.18;47.56
60319;BME280;46163;52.306;5.634;2022-12-10T07:18:16;100759.69;;;16.19;47.37
60319;BME280;46163;52.306;5.634;2022-12-10T07:20:41;100768.31;;;16.21;47.48
60319;BME280;46163;52.306;5.634;2022-12-10T07:23:07;100772.63;;;16.22;47.49
60319;BME280;46163;52.306;5.634;2022-12-10T07:25:33;100787.69;;;16.23;47.40
60319;BME280;46163;52.306;5.634;2022-12-10T07:27:58;100786.63;;;16.24;47.40
60319;BME280;46163;52.306;5.634;2022-12-10T07:30:25;100786.41;;;16.26;47.51
60319;BME280;46163;52.306;5.634;2022-12-10T07:32:50;100779.19;;;16.26;47.29
60319;BME280;46163;52.306;5.634;2022-12-10T07:35:16;100789.91;;;16.26;47.58
60319;BME280;46163;52.306;5.634;2022-12-10T07:37:42;100788.63;;;16.29;47.68
60319;BME280;46163;52.306;5.634;2022-12-10T07:40:08;100789.19;;;16.31;47.70
60319;BME280;46163;52.306;5.634;2022-12-10T07:42:34;100790.81;;;16.32;47.74
60319;BME280;46163;52.306;5.634;2022-12-10T07:45:00;100796.78;;;16.34;47.57
60319;BME280;46163;52.306;5.634;2022-12-10T07:47:25;100789.53;;;16.34;47.60
60319;BME280;46163;52.306;5.634;2022-12-10T07:49:51;100789.28;;;16.36;47.67
60319;BME280;46163;52.306;5.634;2022-12-10T07:52:17;100797.91;;;16.38;47.59
60319;BME280;46163;52.306;5.634;2022-12-10T07:54:43;100805.72;;;16.39;47.65
60319;BME280;46163;52.306;5.634;2022-12-10T07:57:09;100810.84;;;16.41;47.59
60319;BME280;46163;52.306;5.634;2022-12-10T07:59:35;100803.63;;;16.42;47.68
60319;BME280;46163;52.306;5.634;2022-12-10T08:02:01;100799.91;;;16.43;47.64
60319;BME280;46163;52.306;5.634;2022-12-10T08:04:28;100801.53;;;16.44;47.63
60319;BME280;46163;52.306;5.634;2022-12-10T08:06:55;100809.34;;;16.45;47.78
60319;BME280;46163;52.306;5.634;2022-12-10T08:09:21;100811.78;;;16.47;47.70
60319;BME280;46163;52.306;5.634;2022-12-10T08:11:46;100820.41;;;16.49;47.56
60319;BME280;46163;52.306;5.634;2022-12-10T08:14:12;100811.28;;;16.50;47.74
60319;BME280;46163;52.306;5.634;2022-12-10T08:16:37;100809.78;;;16.54;47.79
60319;BME280;46163;52.306;5.634;2022-12-10T08:19:03;100804.41;;;16.54;47.72
60319;BME280;46163;52.306;5.634;2022-12-10T08:21:32;100809.53;;;16.55;47.83
60319;BME280;46163;52.306;5.634;2022-12-10T08:23:58;100812.22;;;16.55;47.72
60319;BME280;46163;52.306;5.634;2022-12-10T08:26:29;100810.34;;;16.56;47.82
60319;BME280;46163;52.306;5.634;2022-12-10T08:28:56;100806.03;;;16.55;47.61
60319;BME280;46163;52.306;5.634;2022-12-10T08:31:23;100816.88;;;16.60;47.68
60319;BME280;46163;52.306;5.634;2022-12-10T08:33:50;100822.00;;;16.61;47.67
60319;BME280;46163;52.306;5.634;2022-12-10T08:36:17;100812.31;;;16.60;47.48
60319;BME280;46163;52.306;5.634;2022-12-10T08:38:43;100823.88;;;16.61;47.65
60319;BME280;46163;52.306;5.634;2022-12-10T08:41:11;100829.56;;;16.64;47.34
60319;BME280;46163;52.306;5.634;2022-12-10T08:43:37;100823.94;;;16.66;47.36
60319;BME280;46163;52.306;5.634;2022-12-10T08:46:03;100823.72;;;16.67;47.33
60319;BME280;46163;52.306;5.634;2022-12-10T08:48:31;100832.00;;;16.66;47.37
60319;BME280;46163;52.306;5.634;2022-12-10T08:50:57;100809.19;;;16.52;46.92
60319;BME280;46163;52.306;5.634;2022-12-10T08:53:23;100835.19;;;16.63;46.99
60319;BME280;46163;52.306;5.634;2022-12-10T08:55:50;100842.44;;;16.62;47.27
60319;BME280;46163;52.306;5.634;2022-12-10T08:58:16;100845.38;;;16.61;47.52
60319;BME280;46163;52.306;5.634;2022-12-10T09:00:42;100849.13;;;16.60;47.24
60319;BME280;46163;52.306;5.634;2022-12-10T09:03:08;100841.75;;;16.55;47.35
60319;BME280;46163;52.306;5.634;2022-12-10T09:05:36;100846.66;;;16.58;47.37
60319;BME280;46163;52.306;5.634;2022-12-10T09:08:03;100845.38;;;16.61;47.11
60319;BME280;46163;52.306;5.634;2022-12-10T09:10:28;100852.63;;;16.60;47.01
60319;BME280;46163;52.306;5.634;2022-12-10T09:12:54;100856.13;;;16.61;47.09
60319;BME280;46163;52.306;5.634;2022-12-10T09:15:19;100853.44;;;16.61;47.00
60319;BME280;46163;52.306;5.634;2022-12-10T09:17:45;100857.75;;;16.62;47.17
60319;BME280;46163;52.306;5.634;2022-12-10T09:20:10;100853.75;;;16.64;47.27
60319;BME280;46163;52.306;5.634;2022-12-10T09:22:36;100856.69;;;16.63;47.27
60319;BME280;46163;52.306;5.634;2022-12-10T09:25:04;100854.31;;;16.66;47.29
60319;BME280;46163;52.306;5.634;2022-12-10T09:27:30;100860.50;;;16.67;47.33
60319;BME280;46163;52.306;5.634;2022-12-10T09:29:56;100873.75;;;16.69;47.34
60319;BME280;46163;52.306;5.634;2022-12-10T09:32:24;100861.81;;;16.64;47.09
60319;BME280;46163;52.306;5.634;2022-12-10T09:34:53;100876.44;;;16.69;47.28
60319;BME280;46163;52.306;5.634;2022-12-10T09:37:18;100872.72;;;16.70;47.50
60319;BME280;46163;52.306;5.634;2022-12-10T09:39:45;100870.84;;;16.70;47.37
60319;BME280;46163;52.306;5.634;2022-12-10T09:42:43;100868.50;;;16.62;47.49
60319;BME280;46163;52.306;5.634;2022-12-10T09:45:41;100882.41;;;16.71;47.64
60319;BME280;46163;52.306;5.634;2022-12-10T09:51:17;100877.59;;;16.73;47.50
60319;BME280;46163;52.306;5.634;2022-12-10T09:53:46;100882.16;;;16.72;47.42
60319;BME280;46163;52.306;5.634;2022-12-10T09:56:23;100888.44;;;16.78;47.39
60319;BME280;46163;52.306;5.634;2022-12-10T09:58:51;100889.25;;;16.78;47.43
60319;BME280;46163;52.306;5.634;2022-12-10T10:01:19;100892.53;;;16.80;47.54
60319;BME280;46163;52.306;5.634;2022-12-10T10:03:48;100887.38;;;16.79;47.54
60319;BME280;46163;52.306;5.634;2022-12-10T10:06:14;100883.78;;;16.73;47.64
60319;BME280;46163;52.306;5.634;2022-12-10T10:11:22;100895.31;;;16.85;47.82
60319;BME280;46163;52.306;5.634;2022-12-10T10:13:52;100887.81;;;16.87;47.86
60319;BME280;46163;52.306;5.634;2022-12-10T10:21:48;100898.44;;;16.94;47.68
60319;BME280;46163;52.306;5.634;2022-12-10T10:24:20;100891.19;;;16.94;47.65
60319;BME280;46163;52.306;5.634;2022-12-10T10:26:47;100897.13;;;16.97;47.71
60319;BME280;46163;52.306;5.634;2022-12-10T10:29:17;100900.13;;;17.00;47.67
60319;BME280;46163;52.306;5.634;2022-12-10T10:31:44;100889.63;;;16.99;47.95
60319;BME280;46163;52.306;5.634;2022-12-10T10:34:17;100891.81;;;17.02;47.59
60319;BME280;46163;52.306;5.634;2022-12-10T10:36:43;100881.06;;;17.02;47.61
60319;BME280;46163;52.306;5.634;2022-12-10T10:39:11;100872.44;;;17.00;47.81
60319;BME280;46163;52.306;5.634;2022-12-10T10:41:48;100889.47;;;17.05;47.66
60319;BME280;46163;52.306;5.634;2022-12-10T10:44:20;100888.97;;;17.08;47.67
60319;BME280;46163;52.306;5.634;2022-12-10T10:46:49;100892.25;;;17.10;47.77
60319;BME280;46163;52.306;5.634;2022-12-10T10:51:47;100890.16;;;17.12;47.46
60319;BME280;46163;52.306;5.634;2022-12-10T10:54:37;100891.53;;;17.15;47.49
60319;BME280;46163;52.306;5.634;2022-12-10T10:59:56;100883.47;;;17.15;47.12
60319;BME280;46163;52.306;5.634;2022-12-10T11:02:37;100881.03;;;17.13;47.40
60319;BME280;46163;52.306;5.634;2022-12-10T11:05:16;100885.09;;;17.16;47.25
60319;BME280;46163;52.306;5.634;2022-12-10T11:07:42;100884.84;;;17.17;47.38
60319;BME280;46163;52.306;5.634;2022-12-10T11:12:45;100890.22;;;17.17;47.53
60319;BME280;46163;52.306;5.634;2022-12-10T11:17:54;100882.16;;;17.17;48.00
60319;BME280;46163;52.306;5.634;2022-12-10T11:22:54;100880.84;;;17.20;48.10
60319;BME280;46163;52.306;5.634;2022-12-10T11:31:14;100879.22;;;17.19;48.59
60319;BME280;46163;52.306;5.634;2022-12-10T11:39:38;100877.50;;;17.13;48.49
60319;BME280;46163;52.306;5.634;2022-12-10T11:51:11;100867.44;;;16.91;48.48
60319;BME280;46163;52.306;5.634;2022-12-10T11:53:52;100883.13;;;16.94;48.42
60319;BME280;46163;52.306;5.634;2022-12-10T12:07:18;100868.44;;;16.85;48.66
60319;BME280;46163;52.306;5.634;2022-12-10T12:12:45;100873.81;;;16.85;48.66
60319;BME280;46163;52.306;5.634;2022-12-10T12:15:21;100875.66;;;16.85;48.54
60319;BME280;46163;52.306;5.634;2022-12-10T12:17:56;100873.81;;;16.85;48.53
60319;BME280;46163;52.306;5.634;2022-12-10T12:20:31;100867.38;;;16.86;48.34
60319;BME280;46163;52.306;5.634;2022-12-10T12:23:22;100865.50;;;16.87;48.45
60319;BME280;46163;52.306;5.634;2022-12-10T12:26:13;100874.94;;;16.89;48.25
60319;BME280;46163;52.306;5.634;2022-12-10T12:28:46;100867.69;;;16.90;48.24
60319;BME280;46163;52.306;5.634;2022-12-10T12:31:27;100871.19;;;16.90;48.08
60319;BME280;46163;52.306;5.634;2022-12-10T12:34:01;100873.63;;;16.92;48.05
60319;BME280;46163;52.306;5.634;2022-12-10T12:36:30;100881.00;;;16.97;47.97
60319;BME280;46163;52.306;5.634;2022-12-10T12:39:11;100875.63;;;16.97;47.78
60319;BME280;46163;52.306;5.634;2022-12-10T12:50:20;100881.00;;;16.97;47.43
60319;BME280;46163;52.306;5.634;2022-12-10T12:52:58;100882.94;;;17.01;47.32
60319;BME280;46163;52.306;5.634;2022-12-10T12:55:39;100879.13;;;16.97;47.34
60319;BME280;46163;52.306;5.634;2022-12-10T12:58:59;100886.44;;;17.02;47.42
60319;BME280;46163;52.306;5.634;2022-12-10T13:01:43;100885.38;;;17.03;47.38
60319;BME280;46163;52.306;5.634;2022-12-10T13:04:13;100881.31;;;17.00;47.49
60319;BME280;46163;52.306;5.634;2022-12-10T13:06:40;100883.53;;;17.03;47.48
60319;BME280;46163;52.306;5.634;2022-12-10T13:11:41;100889.72;;;17.04;47.39
60319;BME280;46163;52.306;5.634;2022-12-10T13:22:04;100889.47;;;17.05;47.25
60319;BME280;46163;52.306;5.634;2022-12-10T13:24:46;100899.41;;;17.05;47.09
60319;BME280;46163;52.306;5.634;2022-12-10T13:27:32;100891.59;;;17.03;47.10
60319;BME280;46163;52.306;5.634;2022-12-10T13:30:04;100894.03;;;17.05;47.10
60319;BME280;46163;52.306;5.634;2022-12-10T13:43:22;100901.63;;;17.08;47.09
60319;BME280;46163;52.306;5.634;2022-12-10T13:48:55;100898.94;;;17.08;46.95
60319;BME280;46163;52.306;5.634;2022-12-10T13:51:31;100888.97;;;17.08;46.89
60319;BME280;46163;52.306;5.634;2022-12-10T13:54:31;100890.84;;;17.08;46.87
60319;BME280;46163;52.306;5.634;2022-12-10T14:02:46;100892.50;;;17.09;46.86
60319;BME280;46163;52.306;5.634;2022-12-10T14:05:54;100892.72;;;17.07;46.92
60319;BME280;46163;52.306;5.634;2022-12-10T14:08:31;100898.13;;;17.07;46.68
60319;BME280;46163;52.306;5.634;2022-12-10T14:10:59;100906.19;;;17.07;46.73
60319;BME280;46163;52.306;5.634;2022-12-10T14:13:35;100907.25;;;17.06;46.67
60319;BME280;46163;52.306;5.634;2022-12-10T14:16:04;100911.56;;;17.07;46.71
60319;BME280;46163;52.306;5.634;2022-12-10T14:18:31;100919.63;;;17.07;46.54
60319;BME280;46163;52.306;5.634;2022-12-10T14:20:57;100928.50;;;17.08;46.57
60319;BME280;46163;52.306;5.634;2022-12-10T14:23:30;100930.13;;;17.09;46.64
60319;BME280;46163;52.306;5.634;2022-12-10T14:26:28;100934.94;;;17.07;46.59
60319;BME280;46163;52.306;5.634;2022-12-10T14:29:01;100931.19;;;17.08;46.66
60319;BME280;46163;52.306;5.634;2022-12-10T14:31:35;100940.31;;;17.07;46.73
60319;BME280;46163;52.306;5.634;2022-12-10T14:34:07;100941.13;;;17.07;46.68
60319;BME280;46163;52.306;5.634;2022-12-10T14:36:38;100934.94;;;17.07;46.73
60319;BME280;46163;52.306;5.634;2022-12-10T14:39:14;100934.94;;;17.07;47.06
60319;BME280;46163;52.306;5.634;2022-12-10T14:41:41;100945.94;;;17.05;47.04
60319;BME280;46163;52.306;5.634;2022-12-10T14:44:12;100956.69;;;17.05;46.88
60319;BME280;46163;52.306;5.634;2022-12-10T14:46:39;100942.81;;;16.97;46.91
60319;BME280;46163;52.306;5.634;2022-12-10T14:49:08;100954.81;;;17.06;47.04
60319;BME280;46163;52.306;5.634;2022-12-10T14:51:39;100952.38;;;17.04;47.07
60319;BME280;46163;52.306;5.634;2022-12-10T14:54:27;100947.00;;;17.04;47.28
60319;BME280;46163;52.306;5.634;2022-12-10T14:56:55;100947.22;;;17.03;47.13